sensor_id;sensor_type;location;lat;lon;timestamp;temperature;humidity
47626;DHT22;33342;45.574;9.252;2022-09-09T00:04:28;26.90;99.90
47626;DHT22;33342;45.574;9.252;2022-09-09T00:07:15;26.90;99.90
47626;DHT22;33342;45.574;9.252;2022-09-09T00:12:39;26.80;99.90
47626;DHT22;33342;45.574;9.252;2022-09-09T00:15:19;26.80;99.90
47626;DHT22;33342;45.574;9.252;2022-09-09T00:20:32;26.70;99.90
47626;DHT22;33342;45.574;9.252;2022-09-09T00:23:25;26.70;99.90
47626;DHT22;33342;45.574;9.252;2022-09-09T00:28:52;26.70;99.90
47626;DHT22;33342;45.574;9.252;2022-09-09T00:31:26;26.70;99.90
47626;DHT22;33342;45.574;9.252;2022-09-09T00:33:58;26.70;99.90
47626;DHT22;33342;45.574;9.252;2022-09-09T00:36:28;26.60;99.90
47626;DHT22;33342;45.574;9.252;2022-09-09T00:38:57;26.60;99.90
47626;DHT22;33342;45.574;9.252;2022-09-09T00:49:57;26.50;99.90
47626;DHT22;33342;45.574;9.252;2022-09-09T00:53:13;26.50;99.90
47626;DHT22;33342;45.574;9.252;2022-09-09T00:57:59;26.50;99.90
47626;DHT22;33342;45.574;9.252;2022-09-09T01:00:31;26.50;99.90
47626;DHT22;33342;45.574;9.252;2022-09-09T01:08:50;26.40;99.90
47626;DHT22;33342;45.574;9.252;2022-09-09T01:28:25;26.30;99.90
47626;DHT22;33342;45.574;9.252;2022-09-09T01:30:57;26.30;99.90
47626;DHT22;33342;45.574;9.252;2022-09-09T01:33:28;26.40;99.90
47626;DHT22;33342;45.574;9.252;2022-09-09T01:36:00;26.30;99.90
47626;DHT22;33342;45.574;9.252;2022-09-09T01:38:36;26.30;99.90
47626;DHT22;33342;45.574;9.252;2022-09-09T01:41:03;26.30;99.90
47626;DHT22;33342;45.574;9.252;2022-09-09T01:43:41;26.30;99.90
47626;DHT22;33342;45.574;9.252;2022-09-09T01:46:09;26.30;99.90
47626;DHT22;33342;45.574;9.252;2022-09-09T01:48:37;26.30;99.90
47626;DHT22;33342;45.574;9.252;2022-09-09T01:51:08;26.30;99.90
47626;DHT22;33342;45.574;9.252;2022-09-09T01:53:39;26.30;99.90
47626;DHT22;33342;45.574;9.252;2022-09-09T01:56:35;26.30;99.90
47626;DHT22;33342;45.574;9.252;2022-09-09T02:01:51;26.30;99.90
47626;DHT22;33342;45.574;9.252;2022-09-09T02:04:41;26.30;99.90
47626;DHT22;33342;45.574;9.252;2022-09-09T02:07:38;26.30;99.90
47626;DHT22;33342;45.574;9.252;2022-09-09T02:10:46;26.30;99.90
47626;DHT22;33342;45.574;9.252;2022-09-09T02:13:29;26.30;99.90
47626;DHT22;33342;45.574;9.252;2022-09-09T02:16:00;26.30;99.90
47626;DHT22;33342;45.574;9.252;2022-09-09T02:18:34;26.30;99.90
47626;DHT22;33342;45.574;9.252;2022-09-09T02:21:02;26.30;99.90
47626;DHT22;33342;45.574;9.252;2022-09-09T02:23:31;26.30;99.90
47626;DHT22;33342;45.574;9.252;2022-09-09T02:26:03;26.30;99.90
47626;DHT22;33342;45.574;9.252;2022-09-09T02:28:32;26.30;99.90
47626;DHT22;33342;45.574;9.252;2022-09-09T02:31:00;26.30;99.90
47626;DHT22;33342;45.574;9.252;2022-09-09T02:33:38;26.30;99.90
47626;DHT22;33342;45.574;9.252;2022-09-09T02:36:08;26.30;99.90
47626;DHT22;33342;45.574;9.252;2022-09-09T02:38:40;26.30;99.90
47626;DHT22;33342;45.574;9.252;2022-09-09T02:41:12;26.30;99.90
47626;DHT22;33342;45.574;9.252;2022-09-09T02:43:39;26.30;99.90
47626;DHT22;33342;45.574;9.252;2022-09-09T02:46:40;26.30;99.90
47626;DHT22;33342;45.574;9.252;2022-09-09T02:52:15;26.30;99.90
47626;DHT22;33342;45.574;9.252;2022-09-09T02:54:43;26.20;99.90
47626;DHT22;33342;45.574;9.252;2022-09-09T02:57:17;26.20;99.90
47626;DHT22;33342;45.574;9.252;2022-09-09T02:59:49;26.20;99.90
47626;DHT22;33342;45.574;9.252;2022-09-09T03:02:16;26.20;99.90
47626;DHT22;33342;45.574;9.252;2022-09-09T03:04:50;26.20;99.90
47626;DHT22;33342;45.574;9.252;2022-09-09T03:07:19;26.20;99.90
47626;DHT22;33342;45.574;9.252;2022-09-09T03:09:48;26.20;99.90
47626;DHT22;33342;45.574;9.252;2022-09-09T03:12:16;26.20;99.90
47626;DHT22;33342;45.574;9.252;2022-09-09T03:14:43;26.20;99.90
47626;DHT22;33342;45.574;9.252;2022-09-09T03:17:13;26.20;99.90
47626;DHT22;33342;45.574;9.252;2022-09-09T03:19:47;26.20;99.90
47626;DHT22;33342;45.574;9.252;2022-09-09T03:22:16;26.20;99.90
47626;DHT22;33342;45.574;9.252;2022-09-09T03:24:44;26.10;99.90
47626;DHT22;33342;45.574;9.252;2022-09-09T03:27:13;26.10;99.90
47626;DHT22;33342;45.574;9.252;2022-09-09T03:29:44;26.20;99.90
47626;DHT22;33342;45.574;9.252;2022-09-09T03:32:15;26.10;99.90
47626;DHT22;33342;45.574;9.252;2022-09-09T03:34:44;26.10;99.90
47626;DHT22;33342;45.574;9.252;2022-09-09T03:37:13;26.10;99.90
47626;DHT22;33342;45.574;9.252;2022-09-09T03:39:40;26.10;99.90
47626;DHT22;33342;45.574;9.252;2022-09-09T03:42:08;26.10;99.90
47626;DHT22;33342;45.574;9.252;2022-09-09T03:44:35;26.10;99.90
47626;DHT22;33342;45.574;9.252;2022-09-09T03:47:03;26.00;99.90
47626;DHT22;33342;45.574;9.252;2022-09-09T03:49:30;26.10;99.90
47626;DHT22;33342;45.574;9.252;2022-09-09T03:51:57;26.00;99.90
47626;DHT22;33342;45.574;9.252;2022-09-09T03:54:25;26.00;99.90
47626;DHT22;33342;45.574;9.252;2022-09-09T03:56:53;26.00;99.90
47626;DHT22;33342;45.574;9.252;2022-09-09T03:59:22;25.90;99.90
47626;DHT22;33342;45.574;9.252;2022-09-09T04:01:49;25.90;99.90
47626;DHT22;33342;45.574;9.252;2022-09-09T04:04:17;25.90;99.90
47626;DHT22;33342;45.574;9.252;2022-09-09T04:06:44;25.90;99.90
47626;DHT22;33342;45.574;9.252;2022-09-09T04:09:11;25.90;99.90
47626;DHT22;33342;45.574;9.252;2022-09-09T04:11:38;25.80;99.90
47626;DHT22;33342;45.574;9.252;2022-09-09T04:14:05;25.80;99.90
47626;DHT22;33342;45.574;9.252;2022-09-09T04:16:35;25.80;99.90
47626;DHT22;33342;45.574;9.252;2022-09-09T04:19:04;25.80;99.90
47626;DHT22;33342;45.574;9.252;2022-09-09T04:21:34;25.60;99.90
47626;DHT22;33342;45.574;9.252;2022-09-09T04:24:01;25.70;99.90
47626;DHT22;33342;45.574;9.252;2022-09-09T04:26:29;25.60;99.90
47626;DHT22;33342;45.574;9.252;2022-09-09T04:28:56;25.60;99.90
47626;DHT22;33342;45.574;9.252;2022-09-09T04:31:23;25.60;99.90
47626;DHT22;33342;45.574;9.252;2022-09-09T04:33:53;25.60;99.90
47626;DHT22;33342;45.574;9.252;2022-09-09T04:36:21;25.60;99.90
47626;DHT22;33342;45.574;9.252;2022-09-09T04:38:51;25.50;99.90
47626;DHT22;33342;45.574;9.252;2022-09-09T04:41:18;25.50;99.90
47626;DHT22;33342;45.574;9.252;2022-09-09T04:43:48;25.50;99.90
47626;DHT22;33342;45.574;9.252;2022-09-09T04:46:16;25.40;99.90
47626;DHT22;33342;45.574;9.252;2022-09-09T04:48:48;25.40;99.90
47626;DHT22;33342;45.574;9.252;2022-09-09T04:51:16;25.40;99.90
47626;DHT22;33342;45.574;9.252;2022-09-09T04:53:45;25.40;99.90
47626;DHT22;33342;45.574;9.252;2022-09-09T04:56:17;25.40;99.90
47626;DHT22;33342;45.574;9.252;2022-09-09T04:58:49;25.40;99.90
47626;DHT22;33342;45.574;9.252;2022-09-09T05:01:21;25.40;99.90
47626;DHT22;33342;45.574;9.252;2022-09-09T05:03:50;25.40;99.90
47626;DHT22;33342;45.574;9.252;2022-09-09T05:06:22;25.30;99.90
47626;DHT22;33342;45.574;9.252;2022-09-09T05:08:53;25.30;99.90
47626;DHT22;33342;45.574;9.252;2022-09-09T05:11:26;25.20;99.90
47626;DHT22;33342;45.574;9.252;2022-09-09T05:13:59;25.20;99.90
47626;DHT22;33342;45.574;9.252;2022-09-09T05:16:28;25.10;99.90
47626;DHT22;33342;45.574;9.252;2022-09-09T05:18:56;25.00;99.90
47626;DHT22;33342;45.574;9.252;2022-09-09T05:21:25;25.00;99.90
47626;DHT22;33342;45.574;9.252;2022-09-09T05:23:53;24.90;99.90
47626;DHT22;33342;45.574;9.252;2022-09-09T05:26:21;24.90;99.90
47626;DHT22;33342;45.574;9.252;2022-09-09T05:28:51;24.90;99.90
47626;DHT22;33342;45.574;9.252;2022-09-09T05:31:19;24.90;99.90
47626;DHT22;33342;45.574;9.252;2022-09-09T05:33:49;24.90;99.90
47626;DHT22;33342;45.574;9.252;2022-09-09T05:36:18;24.80;99.90
47626;DHT22;33342;45.574;9.252;2022-09-09T05:38:49;24.80;99.90
47626;DHT22;33342;45.574;9.252;2022-09-09T05:41:18;24.80;99.90
47626;DHT22;33342;45.574;9.252;2022-09-09T05:43:47;24.70;99.90
47626;DHT22;33342;45.574;9.252;2022-09-09T05:46:17;24.80;99.90
47626;DHT22;33342;45.574;9.252;2022-09-09T05:48:47;24.80;99.90
47626;DHT22;33342;45.574;9.252;2022-09-09T05:51:17;24.80;99.90
47626;DHT22;33342;45.574;9.252;2022-09-09T05:53:45;24.80;99.90
47626;DHT22;33342;45.574;9.252;2022-09-09T05:56:15;24.80;99.90
47626;DHT22;33342;45.574;9.252;2022-09-09T05:58:42;24.80;99.90
47626;DHT22;33342;45.574;9.252;2022-09-09T06:01:30;24.80;99.90
47626;DHT22;33342;45.574;9.252;2022-09-09T06:03:58;24.80;99.90
47626;DHT22;33342;45.574;9.252;2022-09-09T06:06:29;24.80;99.90
47626;DHT22;33342;45.574;9.252;2022-09-09T06:08:58;24.90;99.90
47626;DHT22;33342;45.574;9.252;2022-09-09T06:11:31;24.80;99.90
47626;DHT22;33342;45.574;9.252;2022-09-09T06:14:00;24.90;99.90
47626;DHT22;33342;45.574;9.252;2022-09-09T06:16:30;24.90;99.90
47626;DHT22;33342;45.574;9.252;2022-09-09T06:19:00;24.90;99.90
47626;DHT22;33342;45.574;9.252;2022-09-09T06:21:30;24.90;99.90
47626;DHT22;33342;45.574;9.252;2022-09-09T06:23:59;24.90;99.90
47626;DHT22;33342;45.574;9.252;2022-09-09T06:26:33;24.90;99.90
47626;DHT22;33342;45.574;9.252;2022-09-09T06:29:02;24.90;99.90
47626;DHT22;33342;45.574;9.252;2022-09-09T06:31:32;24.90;99.90
47626;DHT22;33342;45.574;9.252;2022-09-09T06:34:08;24.90;99.90
47626;DHT22;33342;45.574;9.252;2022-09-09T06:36:40;24.90;99.90
47626;DHT22;33342;45.574;9.252;2022-09-09T06:39:08;24.90;99.90
47626;DHT22;33342;45.574;9.252;2022-09-09T06:41:41;24.90;99.90
47626;DHT22;33342;45.574;9.252;2022-09-09T06:44:28;24.90;99.90
47626;DHT22;33342;45.574;9.252;2022-09-09T06:47:02;24.90;99.90
47626;DHT22;33342;45.574;9.252;2022-09-09T06:49:31;24.90;99.90
47626;DHT22;33342;45.574;9.252;2022-09-09T06:51:59;24.90;99.90
47626;DHT22;33342;45.574;9.252;2022-09-09T06:54:27;25.00;99.90
47626;DHT22;33342;45.574;9.252;2022-09-09T06:56:55;25.00;99.90
47626;DHT22;33342;45.574;9.252;2022-09-09T06:59:23;25.10;99.90
47626;DHT22;33342;45.574;9.252;2022-09-09T07:01:53;25.10;99.90
47626;DHT22;33342;45.574;9.252;2022-09-09T07:04:22;25.20;99.90
47626;DHT22;33342;45.574;9.252;2022-09-09T07:06:50;25.20;99.90
47626;DHT22;33342;45.574;9.252;2022-09-09T07:09:23;25.30;99.90
47626;DHT22;33342;45.574;9.252;2022-09-09T07:11:52;25.30;99.90
47626;DHT22;33342;45.574;9.252;2022-09-09T07:14:21;25.40;99.90
47626;DHT22;33342;45.574;9.252;2022-09-09T07:16:56;25.40;99.90
47626;DHT22;33342;45.574;9.252;2022-09-09T07:19:26;25.40;99.90
47626;DHT22;33342;45.574;9.252;2022-09-09T07:21:55;25.40;99.90
47626;DHT22;33342;45.574;9.252;2022-09-09T07:24:23;25.40;99.90
47626;DHT22;33342;45.574;9.252;2022-09-09T07:26:51;25.40;99.90
47626;DHT22;33342;45.574;9.252;2022-09-09T07:29:19;25.40;99.90
47626;DHT22;33342;45.574;9.252;2022-09-09T07:31:48;25.40;99.90
47626;DHT22;33342;45.574;9.252;2022-09-09T07:34:21;25.40;99.90
47626;DHT22;33342;45.574;9.252;2022-09-09T07:36:48;25.40;99.90
47626;DHT22;33342;45.574;9.252;2022-09-09T07:39:17;25.30;99.90
47626;DHT22;33342;45.574;9.252;2022-09-09T07:41:51;25.30;99.90
47626;DHT22;33342;45.574;9.252;2022-09-09T07:44:23;25.20;99.90
47626;DHT22;33342;45.574;9.252;2022-09-09T07:47:03;25.10;99.90
47626;DHT22;33342;45.574;9.252;2022-09-09T07:49:37;25.10;99.90
47626;DHT22;33342;45.574;9.252;2022-09-09T07:52:06;25.10;99.90
47626;DHT22;33342;45.574;9.252;2022-09-09T07:54:41;25.10;99.90
47626;DHT22;33342;45.574;9.252;2022-09-09T07:57:10;25.00;99.90
47626;DHT22;33342;45.574;9.252;2022-09-09T07:59:37;25.10;99.90
47626;DHT22;33342;45.574;9.252;2022-09-09T08:02:04;25.10;99.90
47626;DHT22;33342;45.574;9.252;2022-09-09T08:04:34;25.10;99.90
47626;DHT22;33342;45.574;9.252;2022-09-09T08:07:03;25.10;99.90
47626;DHT22;33342;45.574;9.252;2022-09-09T08:09:37;25.10;99.90
47626;DHT22;33342;45.574;9.252;2022-09-09T08:12:14;25.00;99.90
47626;DHT22;33342;45.574;9.252;2022-09-09T08:14:41;25.10;99.90
47626;DHT22;33342;45.574;9.252;2022-09-09T08:17:08;25.10;99.90
47626;DHT22;33342;45.574;9.252;2022-09-09T08:19:36;25.10;99.90
47626;DHT22;33342;45.574;9.252;2022-09-09T08:22:09;25.10;99.90
47626;DHT22;33342;45.574;9.252;2022-09-09T08:24:38;25.10;99.90
47626;DHT22;33342;45.574;9.252;2022-09-09T08:27:06;25.20;99.90
47626;DHT22;33342;45.574;9.252;2022-09-09T08:29:33;25.20;99.90
47626;DHT22;33342;45.574;9.252;2022-09-09T08:32:01;25.20;99.90
47626;DHT22;33342;45.574;9.252;2022-09-09T08:34:28;25.30;99.90
47626;DHT22;33342;45.574;9.252;2022-09-09T08:37:00;25.20;99.90
47626;DHT22;33342;45.574;9.252;2022-09-09T08:39:33;25.30;99.90
47626;DHT22;33342;45.574;9.252;2022-09-09T08:50:25;25.30;99.90
47626;DHT22;33342;45.574;9.252;2022-09-09T08:53:28;25.30;99.90
47626;DHT22;33342;45.574;9.252;2022-09-09T08:56:02;25.30;99.90
47626;DHT22;33342;45.574;9.252;2022-09-09T08:58:50;25.40;99.90
47626;DHT22;33342;45.574;9.252;2022-09-09T09:01:42;25.40;99.90
47626;DHT22;33342;45.574;9.252;2022-09-09T09:12:23;25.50;99.90
47626;DHT22;33342;45.574;9.252;2022-09-09T09:14:51;25.50;99.90
47626;DHT22;33342;45.574;9.252;2022-09-09T09:17:21;25.50;99.90
47626;DHT22;33342;45.574;9.252;2022-09-09T09:19:51;25.60;99.90
47626;DHT22;33342;45.574;9.252;2022-09-09T09:25:35;25.60;99.90
47626;DHT22;33342;45.574;9.252;2022-09-09T09:28:17;25.60;99.90
47626;DHT22;33342;45.574;9.252;2022-09-09T09:31:03;25.70;99.90
47626;DHT22;33342;45.574;9.252;2022-09-09T09:36:13;25.80;99.90
47626;DHT22;33342;45.574;9.252;2022-09-09T09:38:57;25.80;99.90
47626;DHT22;33342;45.574;9.252;2022-09-09T09:41:47;25.90;99.90
47626;DHT22;33342;45.574;9.252;2022-09-09T09:46:51;26.00;99.90
47626;DHT22;33342;45.574;9.252;2022-09-09T09:49:18;26.10;99.90
47626;DHT22;33342;45.574;9.252;2022-09-09T09:51:46;26.20;99.90
47626;DHT22;33342;45.574;9.252;2022-09-09T09:56:50;26.30;99.90
47626;DHT22;33342;45.574;9.252;2022-09-09T09:59:39;26.40;99.90
47626;DHT22;33342;45.574;9.252;2022-09-09T10:02:25;26.50;99.90
47626;DHT22;33342;45.574;9.252;2022-09-09T10:08:10;26.50;99.90
47626;DHT22;33342;45.574;9.252;2022-09-09T10:10:51;26.50;99.90
47626;DHT22;33342;45.574;9.252;2022-09-09T10:16:29;26.50;99.90
47626;DHT22;33342;45.574;9.252;2022-09-09T10:19:01;26.50;99.90
47626;DHT22;33342;45.574;9.252;2022-09-09T10:24:07;26.60;99.90
47626;DHT22;33342;45.574;9.252;2022-09-09T10:29:35;26.70;99.90
47626;DHT22;33342;45.574;9.252;2022-09-09T10:32:38;26.70;99.90
47626;DHT22;33342;45.574;9.252;2022-09-09T10:54:53;26.70;99.90
47626;DHT22;33342;45.574;9.252;2022-09-09T10:57:50;26.70;99.90
47626;DHT22;33342;45.574;9.252;2022-09-09T11:02:58;26.70;99.90
47626;DHT22;33342;45.574;9.252;2022-09-09T11:05:27;26.70;99.90
47626;DHT22;33342;45.574;9.252;2022-09-09T11:08:03;26.70;99.90
47626;DHT22;33342;45.574;9.252;2022-09-09T11:13:05;26.70;99.90
47626;DHT22;33342;45.574;9.252;2022-09-09T11:15:41;26.70;99.90
47626;DHT22;33342;45.574;9.252;2022-09-09T11:18:15;26.70;99.90
47626;DHT22;33342;45.574;9.252;2022-09-09T11:20:47;26.70;99.90
47626;DHT22;33342;45.574;9.252;2022-09-09T11:23:22;26.80;99.90
47626;DHT22;33342;45.574;9.252;2022-09-09T11:25:55;26.80;99.90
47626;DHT22;33342;45.574;9.252;2022-09-09T11:28:46;26.80;99.90
47626;DHT22;33342;45.574;9.252;2022-09-09T11:31:46;26.90;99.90
47626;DHT22;33342;45.574;9.252;2022-09-09T11:42:23;27.00;99.90
47626;DHT22;33342;45.574;9.252;2022-09-09T11:44:51;27.10;99.90
47626;DHT22;33342;45.574;9.252;2022-09-09T11:47:29;27.10;99.90
47626;DHT22;33342;45.574;9.252;2022-09-09T11:52:44;27.10;99.90
47626;DHT22;33342;45.574;9.252;2022-09-09T11:55:29;27.10;99.90
47626;DHT22;33342;45.574;9.252;2022-09-09T11:58:17;27.20;99.90
47626;DHT22;33342;45.574;9.252;2022-09-09T12:00:49;27.20;99.90
47626;DHT22;33342;45.574;9.252;2022-09-09T12:06:13;27.30;99.90
47626;DHT22;33342;45.574;9.252;2022-09-09T12:08:44;27.30;99.90
47626;DHT22;33342;45.574;9.252;2022-09-09T12:11:27;27.30;99.90
47626;DHT22;33342;45.574;9.252;2022-09-09T12:13:59;27.40;99.90
47626;DHT22;33342;45.574;9.252;2022-09-09T12:24:40;27.30;99.90
47626;DHT22;33342;45.574;9.252;2022-09-09T12:27:13;27.30;99.90
47626;DHT22;33342;45.574;9.252;2022-09-09T12:32:23;27.40;99.90
47626;DHT22;33342;45.574;9.252;2022-09-09T12:35:03;27.50;99.90
47626;DHT22;33342;45.574;9.252;2022-09-09T12:37:42;27.50;99.90
47626;DHT22;33342;45.574;9.252;2022-09-09T12:42:47;27.60;99.90
47626;DHT22;33342;45.574;9.252;2022-09-09T12:45:18;27.60;99.90
47626;DHT22;33342;45.574;9.252;2022-09-09T12:47:52;27.70;99.90
47626;DHT22;33342;45.574;9.252;2022-09-09T12:50:22;27.70;99.90
47626;DHT22;33342;45.574;9.252;2022-09-09T12:52:55;27.70;99.90
47626;DHT22;33342;45.574;9.252;2022-09-09T12:55:28;27.80;99.90
47626;DHT22;33342;45.574;9.252;2022-09-09T12:57:57;27.80;99.90
47626;DHT22;33342;45.574;9.252;2022-09-09T13:00:26;27.80;99.90
47626;DHT22;33342;45.574;9.252;2022-09-09T13:02:56;27.90;99.90
47626;DHT22;33342;45.574;9.252;2022-09-09T13:05:26;28.00;99.90
47626;DHT22;33342;45.574;9.252;2022-09-09T13:08:09;28.00;99.90
47626;DHT22;33342;45.574;9.252;2022-09-09T13:10:47;28.10;99.90
47626;DHT22;33342;45.574;9.252;2022-09-09T13:13:27;28.10;99.90
47626;DHT22;33342;45.574;9.252;2022-09-09T13:15:57;28.20;99.90
47626;DHT22;33342;45.574;9.252;2022-09-09T13:18:36;28.20;99.90
47626;DHT22;33342;45.574;9.252;2022-09-09T13:21:05;28.20;99.90
47626;DHT22;33342;45.574;9.252;2022-09-09T13:23:34;28.20;99.90
47626;DHT22;33342;45.574;9.252;2022-09-09T13:26:22;28.20;99.90
47626;DHT22;33342;45.574;9.252;2022-09-09T13:28:50;28.20;99.90
47626;DHT22;33342;45.574;9.252;2022-09-09T13:31:29;28.20;99.90
47626;DHT22;33342;45.574;9.252;2022-09-09T13:33:56;28.20;99.90
47626;DHT22;33342;45.574;9.252;2022-09-09T13:36:31;28.30;99.90
47626;DHT22;33342;45.574;9.252;2022-09-09T13:38:59;28.30;99.90
47626;DHT22;33342;45.574;9.252;2022-09-09T13:41:42;28.30;99.90
47626;DHT22;33342;45.574;9.252;2022-09-09T13:44:30;28.30;99.90
47626;DHT22;33342;45.574;9.252;2022-09-09T13:47:18;28.40;99.90
47626;DHT22;33342;45.574;9.252;2022-09-09T13:49:48;28.40;99.90
47626;DHT22;33342;45.574;9.252;2022-09-09T13:52:17;28.50;99.90
47626;DHT22;33342;45.574;9.252;2022-09-09T13:54:49;28.50;99.90
47626;DHT22;33342;45.574;9.252;2022-09-09T13:57:24;28.60;99.90
47626;DHT22;33342;45.574;9.252;2022-09-09T13:59:53;28.60;99.90
47626;DHT22;33342;45.574;9.252;2022-09-09T14:02:36;28.70;99.90
47626;DHT22;33342;45.574;9.252;2022-09-09T14:05:05;28.70;99.90
47626;DHT22;33342;45.574;9.252;2022-09-09T14:07:32;28.80;99.90
47626;DHT22;33342;45.574;9.252;2022-09-09T14:09:59;28.80;99.90
47626;DHT22;33342;45.574;9.252;2022-09-09T14:12:27;28.90;99.90
47626;DHT22;33342;45.574;9.252;2022-09-09T14:14:54;29.00;99.90
47626;DHT22;33342;45.574;9.252;2022-09-09T14:17:21;29.10;99.90
47626;DHT22;33342;45.574;9.252;2022-09-09T14:19:48;29.10;99.90
47626;DHT22;33342;45.574;9.252;2022-09-09T14:22:15;29.10;99.90
47626;DHT22;33342;45.574;9.252;2022-09-09T14:24:42;29.10;99.90
47626;DHT22;33342;45.574;9.252;2022-09-09T14:27:09;29.10;99.90
47626;DHT22;33342;45.574;9.252;2022-09-09T14:29:36;29.20;99.90
47626;DHT22;33342;45.574;9.252;2022-09-09T14:32:04;29.30;99.90
47626;DHT22;33342;45.574;9.252;2022-09-09T14:34:36;29.30;99.90
47626;DHT22;33342;45.574;9.252;2022-09-09T14:37:04;29.40;99.90
47626;DHT22;33342;45.574;9.252;2022-09-09T14:39:31;29.40;99.90
47626;DHT22;33342;45.574;9.252;2022-09-09T14:41:58;29.30;99.90
47626;DHT22;33342;45.574;9.252;2022-09-09T14:44:25;29.30;99.90
47626;DHT22;33342;45.574;9.252;2022-09-09T14:46:52;29.20;99.90
47626;DHT22;33342;45.574;9.252;2022-09-09T14:49:21;29.20;99.90
47626;DHT22;33342;45.574;9.252;2022-09-09T14:51:48;29.30;99.90
47626;DHT22;33342;45.574;9.252;2022-09-09T14:54:15;29.50;99.90
47626;DHT22;33342;45.574;9.252;2022-09-09T14:56:42;29.80;99.90
47626;DHT22;33342;45.574;9.252;2022-09-09T14:59:10;30.30;99.90
47626;DHT22;33342;45.574;9.252;2022-09-09T15:01:37;30.80;99.90
47626;DHT22;33342;45.574;9.252;2022-09-09T15:04:05;31.70;99.90
47626;DHT22;33342;45.574;9.252;2022-09-09T15:06:35;32.60;99.90
47626;DHT22;33342;45.574;9.252;2022-09-09T15:09:03;33.60;99.90
47626;DHT22;33342;45.574;9.252;2022-09-09T15:11:33;34.30;99.90
47626;DHT22;33342;45.574;9.252;2022-09-09T15:14:05;34.70;99.90
47626;DHT22;33342;45.574;9.252;2022-09-09T15:16:33;35.30;99.90
47626;DHT22;33342;45.574;9.252;2022-09-09T15:19:01;35.70;99.90
47626;DHT22;33342;45.574;9.252;2022-09-09T15:21:33;36.30;99.90
47626;DHT22;33342;45.574;9.252;2022-09-09T15:24:01;36.80;99.90
47626;DHT22;33342;45.574;9.252;2022-09-09T15:26:28;37.20;99.90
47626;DHT22;33342;45.574;9.252;2022-09-09T15:28:56;37.60;99.90
47626;DHT22;33342;45.574;9.252;2022-09-09T15:31:30;37.80;99.90
47626;DHT22;33342;45.574;9.252;2022-09-09T15:34:01;38.10;99.90
47626;DHT22;33342;45.574;9.252;2022-09-09T15:36:30;38.10;99.90
47626;DHT22;33342;45.574;9.252;2022-09-09T15:38:59;37.80;99.90
47626;DHT22;33342;45.574;9.252;2022-09-09T15:41:27;37.20;99.90
47626;DHT22;33342;45.574;9.252;2022-09-09T15:43:56;36.60;99.90
47626;DHT22;33342;45.574;9.252;2022-09-09T15:46:34;36.00;99.90
47626;DHT22;33342;45.574;9.252;2022-09-09T15:49:17;35.50;99.90
47626;DHT22;33342;45.574;9.252;2022-09-09T15:51:53;35.00;99.90
47626;DHT22;33342;45.574;9.252;2022-09-09T15:54:22;34.60;99.90
47626;DHT22;33342;45.574;9.252;2022-09-09T15:56:53;34.40;99.90
47626;DHT22;33342;45.574;9.252;2022-09-09T15:59:26;34.30;99.90
47626;DHT22;33342;45.574;9.252;2022-09-09T16:01:55;34.50;99.90
47626;DHT22;33342;45.574;9.252;2022-09-09T16:04:23;35.10;99.90
47626;DHT22;33342;45.574;9.252;2022-09-09T16:07:02;35.50;99.90
47626;DHT22;33342;45.574;9.252;2022-09-09T16:09:30;36.00;99.90
47626;DHT22;33342;45.574;9.252;2022-09-09T16:12:00;36.60;99.90
47626;DHT22;33342;45.574;9.252;2022-09-09T16:14:28;36.90;99.90
47626;DHT22;33342;45.574;9.252;2022-09-09T16:17:00;37.20;99.90
47626;DHT22;33342;45.574;9.252;2022-09-09T16:19:28;37.40;99.90
47626;DHT22;33342;45.574;9.252;2022-09-09T16:21:55;37.40;99.90
47626;DHT22;33342;45.574;9.252;2022-09-09T16:24:22;37.30;99.90
47626;DHT22;33342;45.574;9.252;2022-09-09T16:26:52;37.30;99.90
47626;DHT22;33342;45.574;9.252;2022-09-09T16:29:21;37.20;99.90
47626;DHT22;33342;45.574;9.252;2022-09-09T16:31:49;37.00;99.90
47626;DHT22;33342;45.574;9.252;2022-09-09T16:34:17;36.70;99.90
47626;DHT22;33342;45.574;9.252;2022-09-09T16:36:45;36.70;99.90
47626;DHT22;33342;45.574;9.252;2022-09-09T16:39:15;36.80;99.90
47626;DHT22;33342;45.574;9.252;2022-09-09T16:41:43;37.00;99.90
47626;DHT22;33342;45.574;9.252;2022-09-09T16:44:13;37.00;99.90
47626;DHT22;33342;45.574;9.252;2022-09-09T16:46:45;36.60;99.90
47626;DHT22;33342;45.574;9.252;2022-09-09T16:49:16;36.30;99.90
47626;DHT22;33342;45.574;9.252;2022-09-09T16:51:45;35.80;99.90
47626;DHT22;33342;45.574;9.252;2022-09-09T16:54:17;35.40;99.90
47626;DHT22;33342;45.574;9.252;2022-09-09T16:56:46;35.00;99.90
47626;DHT22;33342;45.574;9.252;2022-09-09T16:59:19;34.70;99.90
47626;DHT22;33342;45.574;9.252;2022-09-09T17:01:48;34.40;99.90
47626;DHT22;33342;45.574;9.252;2022-09-09T17:04:21;34.10;99.90
47626;DHT22;33342;45.574;9.252;2022-09-09T17:06:52;33.80;99.90
47626;DHT22;33342;45.574;9.252;2022-09-09T17:09:21;33.60;99.90
47626;DHT22;33342;45.574;9.252;2022-09-09T17:11:49;33.40;99.90
47626;DHT22;33342;45.574;9.252;2022-09-09T17:14:21;33.20;99.90
47626;DHT22;33342;45.574;9.252;2022-09-09T17:16:48;33.10;99.90
47626;DHT22;33342;45.574;9.252;2022-09-09T17:19:16;32.90;99.90
47626;DHT22;33342;45.574;9.252;2022-09-09T17:21:43;32.80;99.90
47626;DHT22;33342;45.574;9.252;2022-09-09T17:24:30;32.70;99.90
47626;DHT22;33342;45.574;9.252;2022-09-09T17:26:57;32.60;99.90
47626;DHT22;33342;45.574;9.252;2022-09-09T17:29:25;32.40;99.90
47626;DHT22;33342;45.574;9.252;2022-09-09T17:31:52;32.40;99.90
47626;DHT22;33342;45.574;9.252;2022-09-09T17:34:19;32.20;99.90
47626;DHT22;33342;45.574;9.252;2022-09-09T17:36:46;32.00;99.90
47626;DHT22;33342;45.574;9.252;2022-09-09T17:39:14;31.90;99.90
47626;DHT22;33342;45.574;9.252;2022-09-09T17:41:41;31.80;99.90
47626;DHT22;33342;45.574;9.252;2022-09-09T17:44:08;31.60;99.90
47626;DHT22;33342;45.574;9.252;2022-09-09T17:46:38;31.50;99.90
47626;DHT22;33342;45.574;9.252;2022-09-09T17:49:12;31.40;99.90
47626;DHT22;33342;45.574;9.252;2022-09-09T17:51:41;31.30;99.90
47626;DHT22;33342;45.574;9.252;2022-09-09T17:54:19;31.10;99.90
47626;DHT22;33342;45.574;9.252;2022-09-09T17:56:47;31.00;99.90
47626;DHT22;33342;45.574;9.252;2022-09-09T17:59:16;30.90;99.90
47626;DHT22;33342;45.574;9.252;2022-09-09T18:01:45;30.80;99.90
47626;DHT22;33342;45.574;9.252;2022-09-09T18:04:14;30.80;99.90
47626;DHT22;33342;45.574;9.252;2022-09-09T18:06:44;30.70;99.90
47626;DHT22;33342;45.574;9.252;2022-09-09T18:09:15;30.60;99.90
47626;DHT22;33342;45.574;9.252;2022-09-09T18:11:45;30.50;99.90
47626;DHT22;33342;45.574;9.252;2022-09-09T18:14:18;30.40;99.90
47626;DHT22;33342;45.574;9.252;2022-09-09T18:16:46;30.40;99.90
47626;DHT22;33342;45.574;9.252;2022-09-09T18:19:16;30.30;99.90
47626;DHT22;33342;45.574;9.252;2022-09-09T18:21:44;30.20;99.90